Time;durP1;ratioP1;P1;durP2;ratioP2;P2;SDS_P1;SDS_P2;PMS_P1;PMS_P2;Temp;Humidity;BMP_temperature;BMP_pressure;BME280_temperature;BME280_humidity;BME280_pressure;Samples;Min_cycle;Max_cycle;Signal;HPM_P1;HPM_P2
2021/12/18 00:00:19;;;;;;;32.03;19.70;;;3.80;99.90;;;;;;4976073;28;20719;-76
2021/12/18 00:02:45;;;;;;;35.57;20.00;;;3.70;99.90;;;;;;4993309;28;20184;-77
2021/12/18 00:05:11;;;;;;;32.97;19.27;;;3.60;99.90;;;;;;4975310;28;20201;-76
2021/12/18 00:07:37;;;;;;;30.53;18.60;;;3.60;99.90;;;;;;4993543;28;20176;-76
2021/12/18 00:10:04;;;;;;;33.67;20.33;;;3.50;99.90;;;;;;4976912;28;20172;-77
2021/12/18 00:12:30;;;;;;;29.87;18.27;;;3.60;99.90;;;;;;4991999;28;20201;-76
2021/12/18 00:14:56;;;;;;;31.00;18.80;;;3.60;99.90;;;;;;4978571;28;20241;-76
2021/12/18 00:17:22;;;;;;;37.67;21.33;;;3.60;99.90;;;;;;4993643;28;20631;-76
2021/12/18 00:19:47;;;;;;;35.57;19.57;;;3.60;99.90;;;;;;4993887;28;20180;-77
2021/12/18 00:22:13;;;;;;;29.67;18.30;;;3.60;99.90;;;;;;4993739;28;20202;-77
2021/12/18 00:24:39;;;;;;;32.70;18.33;;;3.60;99.90;;;;;;4993452;28;20199;-76
2021/12/18 00:27:04;;;;;;;31.97;19.37;;;3.60;99.90;;;;;;4993615;28;20230;-76
2021/12/18 00:29:30;;;;;;;29.83;18.57;;;3.60;99.90;;;;;;4993424;28;20184;-76
2021/12/18 00:31:57;;;;;;;28.80;17.10;;;3.60;99.90;;;;;;4993443;28;20207;-76
2021/12/18 00:34:23;;;;;;;28.13;17.27;;;3.60;99.90;;;;;;4993528;28;20214;-76
2021/12/18 00:36:49;;;;;;;33.50;18.73;;;3.60;99.90;;;;;;4993328;28;20573;-78
2021/12/18 00:39:14;;;;;;;30.17;17.03;;;3.50;99.90;;;;;;4975995;28;20182;-76
2021/12/18 00:44:21;;;;;;;27.80;16.80;;;3.40;99.90;;;;;;4992683;28;20202;-77
2021/12/18 00:46:47;;;;;;;28.00;17.17;;;3.40;99.90;;;;;;4976002;28;20179;-76
2021/12/18 00:49:16;;;;;;;31.70;18.07;;;3.40;99.90;;;;;;4975874;28;20187;-76
2021/12/18 00:51:42;;;;;;;31.53;17.70;;;3.30;99.90;;;;;;4992861;28;20196;-76
2021/12/18 00:54:08;;;;;;;30.77;17.10;;;3.20;99.90;;;;;;4972921;28;20192;-77
2021/12/18 00:56:33;;;;;;;28.47;16.30;;;3.20;99.90;;;;;;4973928;28;20641;-76
2021/12/18 00:58:59;;;;;;;31.30;17.77;;;3.20;99.90;;;;;;4973923;28;20173;-76
2021/12/18 01:01:27;;;;;;;28.53;16.30;;;3.20;99.90;;;;;;4963131;28;20255;-76
2021/12/18 01:03:54;;;;;;;30.40;17.07;;;3.20;99.90;;;;;;4982488;28;20664;-76
2021/12/18 01:06:20;;;;;;;30.17;16.73;;;3.20;99.90;;;;;;4987276;28;20176;-76
2021/12/18 01:08:49;;;;;;;29.57;16.37;;;3.20;99.90;;;;;;4986363;28;20188;-76
2021/12/18 01:11:42;;;;;;;29.47;16.20;;;3.10;99.90;;;;;;4997493;28;20176;-76
2021/12/18 01:24:55;;;;;;;27.87;16.23;;;3.10;99.90;;;;;;4996512;28;20756;-76
2021/12/18 01:27:21;;;;;;;33.33;18.23;;;3.10;99.90;;;;;;4996668;28;20176;-77
2021/12/18 01:29:47;;;;;;;29.07;17.10;;;3.10;99.90;;;;;;4978814;28;20190;-76
2021/12/18 01:32:13;;;;;;;32.47;16.67;;;3.20;99.90;;;;;;4996349;28;20566;-77
2021/12/18 01:34:39;;;;;;;29.90;17.50;;;3.20;99.90;;;;;;4996233;28;20222;-76
2021/12/18 01:37:05;;;;;;;32.40;17.10;;;3.20;99.90;;;;;;4978885;28;20263;-76
2021/12/18 01:39:31;;;;;;;28.73;16.33;;;3.10;99.90;;;;;;4979016;28;20592;-76
2021/12/18 01:52:42;;;;;;;30.90;16.73;;;3.00;99.90;;;;;;4995946;28;20207;-77
2021/12/18 01:55:10;;;;;;;35.47;17.67;;;3.00;99.90;;;;;;4995845;28;20215;-77
2021/12/18 01:57:36;;;;;;;33.00;17.83;;;3.00;99.90;;;;;;4995996;28;20176;-76
2021/12/18 02:00:14;;;;;;;30.90;17.03;;;3.00;99.90;;;;;;4995782;28;20171;-76
2021/12/18 02:02:39;;;;;;;31.57;17.23;;;3.10;99.90;;;;;;4996099;28;20254;-77
2021/12/18 02:05:06;;;;;;;28.73;16.37;;;3.10;99.90;;;;;;4978301;28;20282;-76
2021/12/18 02:07:31;;;;;;;29.13;16.90;;;3.10;99.90;;;;;;4995564;28;20182;-77
2021/12/18 02:10:07;;;;;;;30.87;17.43;;;3.00;99.90;;;;;;4992716;28;20556;-76
2021/12/18 02:13:01;;;;;;;30.47;15.80;;;3.00;99.90;;;;;;4995079;28;20202;-76
2021/12/18 02:20:54;;;;;;;32.37;16.13;;;3.00;99.90;;;;;;4976410;28;20192;-76
2021/12/18 02:23:19;;;;;;;31.67;16.07;;;2.90;99.90;;;;;;4975855;28;20198;-77
2021/12/18 02:25:47;;;;;;;31.10;16.40;;;2.90;99.90;;;;;;4976150;28;20210;-77
2021/12/18 02:28:20;;;;;;;28.13;15.33;;;2.80;99.90;;;;;;4958723;28;20647;-76
2021/12/18 02:30:48;;;;;;;30.93;15.93;;;2.80;99.90;;;;;;4982419;28;20263;-77
2021/12/18 02:33:13;;;;;;;28.53;14.97;;;2.70;99.90;;;;;;4994968;28;20631;-77
2021/12/18 02:35:47;;;;;;;30.03;14.97;;;2.80;99.90;;;;;;4977122;28;20188;-77
2021/12/18 02:38:20;;;;;;;27.90;14.73;;;2.70;99.90;;;;;;4995037;28;20234;-76
2021/12/18 02:43:16;;;;;;;25.50;14.30;;;2.60;99.90;;;;;;4995683;28;20179;-77
2021/12/18 02:45:41;;;;;;;27.00;15.13;;;2.70;99.90;;;;;;4993361;28;20186;-78
2021/12/18 02:48:07;;;;;;;28.57;14.87;;;2.70;99.90;;;;;;4972335;28;20648;-75
2021/12/18 02:50:33;;;;;;;26.70;15.10;;;2.80;99.90;;;;;;4989997;28;20180;-75
2021/12/18 02:52:58;;;;;;;29.33;14.40;;;2.60;99.90;;;;;;4975550;28;20195;-76
2021/12/18 02:55:24;;;;;;;25.13;14.93;;;2.60;99.90;;;;;;4976167;28;20235;-76
2021/12/18 02:57:49;;;;;;;27.80;14.43;;;2.60;99.90;;;;;;4995102;28;20187;-76
2021/12/18 03:00:17;;;;;;;29.00;15.50;;;2.60;99.90;;;;;;4994872;28;20202;-76
2021/12/18 03:02:44;;;;;;;30.10;15.67;;;2.60;99.90;;;;;;4993544;28;20520;-76
2021/12/18 03:05:18;;;;;;;30.90;16.00;;;2.60;99.90;;;;;;4994621;28;20195;-76
2021/12/18 03:07:45;;;;;;;28.77;15.33;;;2.60;99.90;;;;;;4994794;28;20172;-76
2021/12/18 03:23:47;;;;;;;35.80;17.23;;;2.50;99.90;;;;;;4994522;28;20202;-76
2021/12/18 03:26:14;;;;;;;30.73;16.23;;;2.40;99.90;;;;;;4992969;28;20206;-76
2021/12/18 03:28:39;;;;;;;33.43;16.67;;;2.40;99.90;;;;;;4974606;28;20211;-75
2021/12/18 03:31:05;;;;;;;31.63;16.33;;;2.40;99.90;;;;;;4974196;28;20215;-75
2021/12/18 03:33:31;;;;;;;31.63;16.40;;;2.40;99.90;;;;;;4975756;28;20262;-75
2021/12/18 03:35:57;;;;;;;31.03;17.70;;;2.40;99.90;;;;;;4990752;28;20180;-76
2021/12/18 03:38:24;;;;;;;36.00;18.70;;;2.50;99.90;;;;;;4991507;28;20211;-76
2021/12/18 03:40:49;;;;;;;29.53;17.40;;;2.40;99.90;;;;;;4991840;28;20177;-76
2021/12/18 03:43:15;;;;;;;34.27;16.83;;;2.40;99.90;;;;;;4984053;28;20238;-77
2021/12/18 03:45:41;;;;;;;36.73;18.80;;;2.40;99.90;;;;;;4977708;28;20559;-78
2021/12/18 03:48:07;;;;;;;35.43;18.47;;;2.30;99.90;;;;;;4974380;28;20204;-76
2021/12/18 03:50:33;;;;;;;36.93;18.97;;;2.30;99.90;;;;;;4991774;28;20662;-76
2021/12/18 03:52:58;;;;;;;37.80;18.83;;;2.20;99.90;;;;;;4992011;28;20221;-76
2021/12/18 03:55:26;;;;;;;34.60;17.90;;;2.30;99.90;;;;;;4992059;28;20174;-76
2021/12/18 03:57:52;;;;;;;34.47;17.97;;;2.20;99.90;;;;;;4991982;28;20179;-76
2021/12/18 04:00:19;;;;;;;37.43;18.77;;;2.20;99.90;;;;;;4990973;28;20663;-76
2021/12/18 04:02:44;;;;;;;37.57;18.77;;;2.20;99.90;;;;;;4988833;28;20643;-76
2021/12/18 04:05:12;;;;;;;35.67;18.57;;;2.20;99.90;;;;;;4974422;28;20207;-77
2021/12/18 04:07:42;;;;;;;37.37;19.27;;;2.20;99.90;;;;;;4992019;28;20179;-76
2021/12/18 04:10:13;;;;;;;35.30;18.03;;;2.20;99.90;;;;;;4974527;28;20180;-76
2021/12/18 04:12:38;;;;;;;34.77;18.03;;;2.20;99.90;;;;;;4976739;28;20290;-76
2021/12/18 04:15:05;;;;;;;37.27;18.27;;;2.30;99.90;;;;;;4976252;28;20283;-75
2021/12/18 04:17:31;;;;;;;38.13;18.70;;;2.20;99.90;;;;;;4993557;28;20639;-76
2021/12/18 04:19:57;;;;;;;34.60;18.07;;;2.20;99.90;;;;;;4993714;28;20214;-76
2021/12/18 04:22:23;;;;;;;34.83;17.60;;;2.20;99.90;;;;;;4993691;28;20183;-76
2021/12/18 04:24:49;;;;;;;37.97;18.30;;;2.20;99.90;;;;;;4993851;28;20196;-76
2021/12/18 04:27:15;;;;;;;37.13;18.27;;;2.90;99.90;;;;;;4993775;28;20179;-76
2021/12/18 04:29:41;;;;;;;34.03;17.83;;;2.30;99.90;;;;;;4994003;28;20180;-75
2021/12/18 04:32:06;;;;;;;31.33;17.23;;;2.30;99.90;;;;;;4993752;28;20221;-76
2021/12/18 04:34:32;;;;;;;33.43;16.73;;;2.30;99.90;;;;;;4993816;28;20216;-76
2021/12/18 04:36:58;;;;;;;36.50;18.40;;;2.30;99.90;;;;;;4976805;28;20191;-76
2021/12/18 04:39:23;;;;;;;34.60;18.60;;;2.40;99.90;;;;;;4996787;28;20181;-76
2021/12/18 04:41:52;;;;;;;33.00;17.40;;;2.30;99.90;;;;;;4982046;28;20272;-76
2021/12/18 04:44:18;;;;;;;34.10;17.93;;;2.30;99.90;;;;;;4997191;28;20207;-77
2021/12/18 04:46:44;;;;;;;33.97;17.60;;;2.30;99.90;;;;;;4997453;28;20215;-76
2021/12/18 04:49:10;;;;;;;37.33;19.47;;;2.20;99.90;;;;;;4997130;28;20215;-75
2021/12/18 04:51:36;;;;;;;37.77;18.80;;;2.20;99.90;;;;;;4997325;28;20184;-76
2021/12/18 04:54:02;;;;;;;33.77;17.67;;;2.20;99.90;;;;;;4997275;28;20230;-76
2021/12/18 04:56:28;;;;;;;33.33;17.13;;;2.20;99.90;;;;;;4997399;28;20203;-75
2021/12/18 04:58:53;;;;;;;36.20;18.27;;;2.20;99.90;;;;;;4996562;28;20606;-76
2021/12/18 05:01:19;;;;;;;36.70;18.60;;;2.20;99.90;;;;;;4995375;28;20184;-75
2021/12/18 05:03:47;;;;;;;36.97;17.63;;;2.20;99.90;;;;;;4979227;28;20218;-76
2021/12/18 05:06:13;;;;;;;35.00;17.97;;;2.10;99.90;;;;;;4997014;28;20191;-77
2021/12/18 05:08:39;;;;;;;38.83;19.07;;;2.20;99.90;;;;;;4995016;28;20179;-75
2021/12/18 05:11:04;;;;;;;33.63;17.80;;;2.20;99.90;;;;;;4977128;28;20575;-76
2021/12/18 05:13:30;;;;;;;35.23;18.23;;;2.20;99.90;;;;;;4974524;28;20230;-76
2021/12/18 05:15:55;;;;;;;33.47;16.80;;;2.20;99.90;;;;;;4979834;28;20188;-76
2021/12/18 05:18:21;;;;;;;34.27;17.50;;;2.20;99.90;;;;;;4977342;28;20188;-76
2021/12/18 05:20:47;;;;;;;32.87;17.30;;;2.20;99.90;;;;;;4977228;28;20259;-79
2021/12/18 05:23:12;;;;;;;36.10;18.03;;;2.20;99.90;;;;;;4959831;28;20191;-76
2021/12/18 05:25:38;;;;;;;37.67;18.37;;;2.20;99.90;;;;;;4977487;28;20728;-76
2021/12/18 05:28:04;;;;;;;36.37;17.60;;;2.20;99.90;;;;;;4976920;28;20662;-76
2021/12/18 05:30:30;;;;;;;37.47;18.00;;;2.20;99.90;;;;;;4959633;28;20628;-76
2021/12/18 05:32:56;;;;;;;37.43;18.30;;;2.20;99.90;;;;;;4977054;28;20256;-76
2021/12/18 05:35:22;;;;;;;39.93;19.00;;;2.20;99.90;;;;;;5043049;23;20226;-73
2021/12/18 05:37:50;;;;;;;33.67;17.93;;;2.20;99.90;;;;;;5026225;28;20267;-74
2021/12/18 05:40:19;;;;;;;34.77;17.67;;;2.10;99.90;;;;;;5016081;28;20175;-74
2021/12/18 05:42:45;;;;;;;33.10;17.27;;;2.20;99.90;;;;;;5015306;28;20179;-73
2021/12/18 05:45:11;;;;;;;36.47;18.27;;;2.10;99.90;;;;;;4997822;28;20610;-73
2021/12/18 05:47:37;;;;;;;39.67;19.23;;;2.10;99.90;;;;;;5010451;28;20651;-73
2021/12/18 05:50:05;;;;;;;36.20;17.53;;;2.10;99.90;;;;;;5000687;28;20169;-73
2021/12/18 05:52:30;;;;;;;35.57;17.47;;;2.00;99.90;;;;;;4993275;28;20203;-73
2021/12/18 05:54:56;;;;;;;30.93;15.93;;;2.00;99.90;;;;;;5012460;28;20561;-73
2021/12/18 05:57:23;;;;;;;37.03;17.47;;;2.00;99.90;;;;;;4994676;28;20254;-73
2021/12/18 05:59:49;;;;;;;32.77;16.93;;;2.00;99.90;;;;;;5012506;28;20175;-73
2021/12/18 06:02:15;;;;;;;30.03;15.93;;;2.00;99.90;;;;;;5012335;28;20179;-73
2021/12/18 06:04:42;;;;;;;32.50;16.30;;;2.00;99.90;;;;;;5012687;28;20208;-74
2021/12/18 06:07:17;;;;;;;32.47;16.90;;;1.90;99.90;;;;;;5011334;28;20175;-74
2021/12/18 06:09:43;;;;;;;32.70;16.53;;;1.90;99.90;;;;;;5011735;28;20194;-73
2021/12/18 06:12:10;;;;;;;32.33;16.10;;;1.90;99.90;;;;;;5015811;28;20199;-73
2021/12/18 06:14:35;;;;;;;32.20;16.57;;;1.90;99.90;;;;;;4999220;28;20192;-73
2021/12/18 06:17:01;;;;;;;27.47;14.77;;;1.90;99.90;;;;;;5007380;28;20172;-73
2021/12/18 06:19:27;;;;;;;30.00;15.53;;;1.80;99.90;;;;;;4979054;28;20257;-73
2021/12/18 06:21:52;;;;;;;32.50;15.17;;;1.80;99.90;;;;;;4994883;28;20272;-73
2021/12/18 06:24:18;;;;;;;31.27;16.40;;;1.90;99.90;;;;;;4997263;28;20207;-73
2021/12/18 06:26:44;;;;;;;33.53;16.13;;;1.90;99.90;;;;;;4995532;28;20183;-73
2021/12/18 06:29:11;;;;;;;30.30;15.80;;;1.80;99.90;;;;;;5013109;28;20229;-73
2021/12/18 06:31:37;;;;;;;31.83;15.87;;;1.80;99.90;;;;;;5013773;28;20171;-74
2021/12/18 06:34:03;;;;;;;30.93;16.87;;;1.80;99.90;;;;;;4997172;28;20179;-73
2021/12/18 06:36:29;;;;;;;33.53;18.93;;;1.80;99.90;;;;;;4982818;28;20712;-73
2021/12/18 06:38:57;;;;;;;29.43;15.27;;;1.80;99.90;;;;;;5004853;28;20253;-73
2021/12/18 06:41:23;;;;;;;36.20;19.00;;;1.80;99.90;;;;;;4985437;28;20560;-74
2021/12/18 06:43:49;;;;;;;32.60;16.90;;;1.80;99.90;;;;;;4988222;28;20659;-74
2021/12/18 06:46:15;;;;;;;35.70;17.13;;;1.80;99.90;;;;;;4978257;28;20200;-74
2021/12/18 06:48:41;;;;;;;31.30;16.13;;;1.80;99.90;;;;;;4992672;28;20272;-74
2021/12/18 06:51:07;;;;;;;31.67;16.60;;;1.80;99.90;;;;;;4979658;28;20175;-74
2021/12/18 06:53:32;;;;;;;30.20;15.90;;;1.80;99.90;;;;;;4995192;28;20242;-74
2021/12/18 06:55:58;;;;;;;33.33;16.43;;;1.80;99.90;;;;;;5010380;28;20697;-74
2021/12/18 06:58:24;;;;;;;28.50;14.90;;;1.80;99.90;;;;;;4980008;28;20171;-74
2021/12/18 07:00:53;;;;;;;32.73;16.00;;;1.80;99.90;;;;;;4975101;28;20176;-73
2021/12/18 07:03:19;;;;;;;31.87;16.30;;;1.80;99.90;;;;;;5008255;28;20171;-74
2021/12/18 07:05:45;;;;;;;32.57;16.00;;;1.80;99.90;;;;;;4988784;28;20207;-74
2021/12/18 07:08:11;;;;;;;33.73;17.30;;;1.80;99.90;;;;;;5007444;28;20678;-74
2021/12/18 07:10:37;;;;;;;30.50;14.73;;;1.80;99.90;;;;;;5009282;28;20172;-74
2021/12/18 07:13:03;;;;;;;31.63;15.63;;;1.80;99.90;;;;;;4987924;28;20697;-74
2021/12/18 07:15:29;;;;;;;28.60;15.10;;;1.80;99.90;;;;;;4996442;28;20278;-73
2021/12/18 07:17:54;;;;;;;28.80;15.27;;;1.80;99.90;;;;;;4997147;28;20585;-75
2021/12/18 07:20:20;;;;;;;27.70;15.27;;;1.80;99.90;;;;;;5014383;28;20543;-73
2021/12/18 07:22:49;;;;;;;33.90;18.97;;;1.80;99.90;;;;;;4996862;28;20546;-73
2021/12/18 07:25:15;;;;;;;27.30;15.60;;;1.80;99.90;;;;;;4996753;28;20200;-73
2021/12/18 07:27:41;;;;;;;30.10;14.87;;;1.90;99.90;;;;;;4996476;28;20174;-74
2021/12/18 07:30:08;;;;;;;29.67;14.03;;;1.90;99.90;;;;;;5013035;28;20207;-74
2021/12/18 07:32:33;;;;;;;34.90;15.70;;;1.90;99.90;;;;;;4994874;28;20202;-73
2021/12/18 07:34:59;;;;;;;27.60;15.03;;;1.90;99.90;;;;;;4996203;28;20217;-73
2021/12/18 07:37:25;;;;;;;26.17;14.03;;;1.90;99.90;;;;;;5014258;28;20282;-73
2021/12/18 07:39:54;;;;;;;28.70;15.43;;;1.90;99.90;;;;;;4996294;28;20167;-74
2021/12/18 07:42:20;;;;;;;28.87;14.10;;;1.90;99.90;;;;;;4990767;28;20647;-73
2021/12/18 07:44:46;;;;;;;25.93;13.53;;;1.90;99.90;;;;;;5012479;28;20313;-74
2021/12/18 07:47:12;;;;;;;26.17;13.83;;;1.90;99.90;;;;;;4996548;28;20669;-74
2021/12/18 07:49:38;;;;;;;21.80;13.30;;;1.90;99.90;;;;;;5014117;28;20249;-73
2021/12/18 07:52:04;;;;;;;38.30;18.40;;;1.90;99.90;;;;;;5013996;28;20732;-74
2021/12/18 07:54:30;;;;;;;27.60;13.80;;;1.90;99.90;;;;;;5013933;28;20203;-75
2021/12/18 07:56:56;;;;;;;27.43;13.77;;;1.90;99.90;;;;;;5014500;28;20171;-73
2021/12/18 07:59:22;;;;;;;26.70;13.67;;;1.90;99.90;;;;;;5013804;28;20165;-73
2021/12/18 08:01:47;;;;;;;28.33;13.87;;;1.90;99.90;;;;;;5011883;28;20297;-73
2021/12/18 08:04:13;;;;;;;29.17;14.33;;;1.90;99.90;;;;;;5002396;28;20167;-74
2021/12/18 08:06:40;;;;;;;28.00;14.57;;;2.00;99.90;;;;;;5011391;28;20680;-73
2021/12/18 08:09:06;;;;;;;27.60;13.90;;;2.00;99.90;;;;;;5005278;28;20179;-73
2021/12/18 08:11:32;;;;;;;25.57;14.63;;;2.00;99.90;;;;;;5013857;28;20175;-74
2021/12/18 08:13:58;;;;;;;23.83;14.53;;;2.10;99.90;;;;;;5009006;28;20669;-74
2021/12/18 08:16:24;;;;;;;28.40;14.47;;;2.10;99.90;;;;;;5017498;28;20198;-74
2021/12/18 08:18:49;;;;;;;27.27;15.70;;;2.10;99.90;;;;;;5017848;28;20645;-74
2021/12/18 08:21:15;;;;;;;26.13;14.77;;;2.10;99.90;;;;;;5017872;28;20253;-74
2021/12/18 08:23:41;;;;;;;27.40;14.30;;;2.10;99.90;;;;;;5017755;28;20175;-74
2021/12/18 08:26:07;;;;;;;26.37;14.07;;;2.20;99.90;;;;;;5017434;28;20569;-74
2021/12/18 08:28:33;;;;;;;22.73;13.63;;;2.20;99.90;;;;;;5016910;28;20179;-74
2021/12/18 08:30:58;;;;;;;22.27;13.07;;;2.20;99.90;;;;;;5001886;28;20182;-76
2021/12/18 08:33:24;;;;;;;25.83;14.17;;;2.20;99.90;;;;;;5007052;28;20206;-74
2021/12/18 08:35:50;;;;;;;24.00;14.20;;;2.20;99.90;;;;;;4999080;28;20629;-74
2021/12/18 08:38:16;;;;;;;26.87;15.30;;;2.20;99.90;;;;;;4996705;28;20606;-74
2021/12/18 08:40:43;;;;;;;27.60;15.07;;;2.20;99.90;;;;;;5002065;28;20172;-74
2021/12/18 08:43:09;;;;;;;25.17;14.17;;;2.20;99.90;;;;;;5005924;28;20175;-74
2021/12/18 08:45:36;;;;;;;25.33;14.13;;;2.20;99.90;;;;;;5017551;28;20234;-75
2021/12/18 08:48:02;;;;;;;27.73;14.57;;;2.20;99.90;;;;;;5017260;28;20175;-75
2021/12/18 09:09:22;;;;;;;18.53;11.63;;;2.30;99.90;;;;;;4969016;28;20360;-74
2021/12/18 09:11:47;;;;;;;20.23;12.40;;;2.20;99.90;;;;;;4969514;28;20259;-76
2021/12/18 09:14:14;;;;;;;16.57;10.87;;;2.30;99.90;;;;;;4954245;28;20722;-76
2021/12/18 09:24:51;;;;;;;17.53;10.87;;;2.30;99.90;;;;;;5655151;23;20229;-76
2021/12/18 09:27:17;;;;;;;17.00;11.37;;;2.30;99.90;;;;;;5009517;28;20203;-75
2021/12/18 09:29:43;;;;;;;17.20;11.40;;;2.40;99.90;;;;;;5010261;28;20182;-75
2021/12/18 09:32:10;;;;;;;16.40;10.73;;;2.40;99.90;;;;;;5001917;28;20226;-75
2021/12/18 09:34:36;;;;;;;15.57;10.40;;;2.40;99.90;;;;;;5005241;28;20208;-75
2021/12/18 09:37:02;;;;;;;14.87;9.47;;;2.30;99.90;;;;;;4992023;28;20180;-75
2021/12/18 09:39:27;;;;;;;14.13;9.33;;;2.30;99.90;;;;;;4992148;28;20196;-76
2021/12/18 09:41:54;;;;;;;15.40;10.03;;;2.30;99.90;;;;;;4995058;28;20179;-75
2021/12/18 09:44:28;;;;;;;13.57;9.17;;;2.40;99.90;;;;;;4977513;28;20208;-76
2021/12/18 09:46:55;;;;;;;15.17;9.93;;;2.50;99.90;;;;;;4995022;28;20175;-75
2021/12/18 09:49:21;;;;;;;12.83;9.53;;;2.50;99.90;;;;;;4994717;28;20176;-76
2021/12/18 09:51:47;;;;;;;12.63;8.70;;;2.50;99.90;;;;;;4994428;28;20707;-76
2021/12/18 09:54:13;;;;;;;19.03;10.90;;;2.50;99.90;;;;;;4985207;28;21003;-76
2021/12/18 09:56:39;;;;;;;15.63;10.50;;;2.50;99.90;;;;;;4984734;28;20180;-75
2021/12/18 09:59:06;;;;;;;12.73;8.60;;;2.40;99.90;;;;;;4994267;28;20639;-75
2021/12/18 10:01:32;;;;;;;14.40;10.27;;;2.40;99.90;;;;;;4977810;28;20255;-75
2021/12/18 10:04:01;;;;;;;16.17;10.13;;;2.40;99.90;;;;;;4994555;28;20207;-76
2021/12/18 10:06:44;;;;;;;15.83;10.80;;;2.40;99.90;;;;;;4987107;28;20208;-76
2021/12/18 10:09:12;;;;;;;14.27;10.33;;;2.50;99.90;;;;;;4975621;28;20521;-76
2021/12/18 10:11:51;;;;;;;15.20;9.43;;;2.50;99.90;;;;;;4971346;28;20237;-75
2021/12/18 10:14:18;;;;;;;14.33;9.43;;;2.60;99.90;;;;;;5003638;28;20202;-76
2021/12/18 10:16:50;;;;;;;16.50;10.73;;;2.70;99.90;;;;;;4994398;28;20271;-77
2021/12/18 10:19:36;;;;;;;19.93;11.70;;;2.80;99.90;;;;;;4994061;28;20180;-77
2021/12/18 10:22:07;;;;;;;24.17;12.67;;;2.90;99.90;;;;;;4976215;28;20183;-77
2021/12/18 10:24:38;;;;;;;21.67;13.20;;;2.80;99.90;;;;;;4993863;28;20854;-77
2021/12/18 10:27:23;;;;;;;14.53;9.30;;;3.00;99.90;;;;;;4993923;28;20198;-77
2021/12/18 10:29:52;;;;;;;14.47;9.57;;;3.10;99.90;;;;;;4976458;28;20183;-76
2021/12/18 10:32:23;;;;;;;17.20;10.73;;;3.10;99.90;;;;;;4976342;28;20193;-76
2021/12/18 10:34:58;;;;;;;15.47;9.47;;;3.20;99.90;;;;;;4993547;28;20204;-78
2021/12/18 10:37:31;;;;;;;17.37;10.93;;;3.30;99.90;;;;;;4993409;28;20254;-76
2021/12/18 10:40:03;;;;;;;15.13;10.80;;;3.20;99.90;;;;;;4992708;28;20175;-77
2021/12/18 10:42:34;;;;;;;16.37;11.63;;;3.30;99.90;;;;;;4976190;28;20643;-73
2021/12/18 10:45:21;;;;;;;19.77;12.50;;;3.40;99.90;;;;;;4975939;28;20212;-76
2021/12/18 10:48:02;;;;;;;22.27;13.40;;;3.20;99.90;;;;;;4975974;28;20176;-76
2021/12/18 10:50:28;;;;;;;22.40;13.17;;;3.20;99.90;;;;;;4992966;28;20172;-76
2021/12/18 10:53:02;;;;;;;17.60;11.97;;;3.30;99.90;;;;;;4993518;28;20218;-77
2021/12/18 10:55:37;;;;;;;22.67;13.53;;;3.30;99.90;;;;;;4975747;28;20274;-77
2021/12/18 10:58:06;;;;;;;16.23;11.67;;;3.30;99.90;;;;;;4993100;28;20186;-76
2021/12/18 11:00:35;;;;;;;15.07;10.77;;;3.30;99.90;;;;;;4993014;28;20647;-77
2021/12/18 11:03:23;;;;;;;17.87;10.47;;;3.20;99.90;;;;;;4993291;28;20669;-77
2021/12/18 11:06:07;;;;;;;16.47;10.13;;;3.30;99.90;;;;;;4992695;28;20584;-76
2021/12/18 11:08:37;;;;;;;15.70;10.60;;;3.30;99.90;;;;;;4974474;28;20732;-76
2021/12/18 11:13:50;;;;;;;15.53;10.73;;;3.30;99.90;;;;;;4992177;28;20246;-76
2021/12/18 11:16:19;;;;;;;14.53;9.80;;;3.30;99.90;;;;;;4975282;28;20617;-77
2021/12/18 11:18:46;;;;;;;13.67;9.20;;;3.50;99.90;;;;;;4974544;28;20218;-76
2021/12/18 11:21:13;;;;;;;13.47;9.70;;;3.20;99.90;;;;;;4974539;28;20172;-77
2021/12/18 11:24:00;;;;;;;14.00;9.67;;;3.30;99.90;;;;;;4992430;28;20180;-76
2021/12/18 11:26:35;;;;;;;12.03;9.23;;;3.30;99.90;;;;;;4993000;28;20287;-75
2021/12/18 11:29:03;;;;;;;12.97;9.30;;;3.30;99.90;;;;;;4991528;28;20171;-75
2021/12/18 11:31:29;;;;;;;14.27;10.10;;;3.30;99.90;;;;;;4991702;28;20180;-76
2021/12/18 11:33:54;;;;;;;11.63;8.80;;;3.30;99.90;;;;;;4990800;28;20271;-76
2021/12/18 11:36:21;;;;;;;12.23;8.43;;;3.40;99.90;;;;;;4991012;28;20172;-76
2021/12/18 11:38:51;;;;;;;23.53;13.80;;;3.40;99.90;;;;;;4975215;28;20267;-76
2021/12/18 11:41:18;;;;;;;10.87;7.33;;;3.40;99.90;;;;;;4974728;28;20180;-76
2021/12/18 11:43:46;;;;;;;15.40;9.50;;;3.50;99.90;;;;;;4991888;28;20171;-76
2021/12/18 11:46:32;;;;;;;11.40;8.13;;;3.40;99.90;;;;;;4992036;28;20172;-76
2021/12/18 11:49:11;;;;;;;9.73;7.60;;;3.30;99.90;;;;;;4973245;28;20272;-75
2021/12/18 11:51:38;;;;;;;9.70;7.60;;;3.30;99.90;;;;;;4992081;28;20258;-75
2021/12/18 11:54:24;;;;;;;10.10;7.37;;;3.40;99.90;;;;;;4991937;28;20207;-76
2021/12/18 11:56:50;;;;;;;9.77;7.90;;;3.40;99.90;;;;;;4974761;28;20550;-75
2021/12/18 11:59:44;;;;;;;10.57;7.70;;;3.40;99.90;;;;;;4991344;28;20729;-75
2021/12/18 12:02:12;;;;;;;11.13;8.07;;;3.50;99.90;;;;;;4975083;28;20597;-75
2021/12/18 12:04:58;;;;;;;9.77;7.63;;;3.50;99.90;;;;;;4980323;28;20204;-75
2021/12/18 12:07:25;;;;;;;10.03;7.93;;;3.60;99.90;;;;;;4991814;28;20211;-75
2021/12/18 12:10:46;;;;;;;9.33;7.10;;;3.60;99.90;;;;;;4974546;28;20175;-76
2021/12/18 12:13:07;;;;;;;10.87;8.13;;;3.70;99.90;;;;;;4991658;28;20913;-75
2021/12/18 12:15:33;;;;;;;10.67;8.47;;;3.60;99.90;;;;;;4976251;28;20239;-76
2021/12/18 12:18:04;;;;;;;9.60;7.50;;;3.60;99.90;;;;;;4994180;28;20199;-75
2021/12/18 12:20:37;;;;;;;12.43;9.63;;;3.50;99.90;;;;;;4972249;28;20175;-76
2021/12/18 12:23:04;;;;;;;11.53;8.77;;;3.60;99.90;;;;;;4991984;28;20172;-76
2021/12/18 12:25:34;;;;;;;11.10;8.33;;;3.60;99.90;;;;;;4975587;28;20195;-76
2021/12/18 12:28:13;;;;;;;12.80;8.97;;;3.60;99.90;;;;;;4975702;28;20200;-75
2021/12/18 12:30:45;;;;;;;10.80;8.47;;;3.70;99.90;;;;;;4993149;28;20254;-76
2021/12/18 12:33:43;;;;;;;10.50;8.20;;;3.70;99.90;;;;;;4993067;28;20200;-75
2021/12/18 12:36:13;;;;;;;11.30;8.07;;;3.80;99.90;;;;;;4972649;28;20647;-75
2021/12/18 12:39:00;;;;;;;8.97;7.50;;;3.90;99.90;;;;;;4992703;28;20190;-75
2021/12/18 12:41:38;;;;;;;10.90;7.63;;;4.00;99.90;;;;;;4984364;28;20185;-76
2021/12/18 12:44:18;;;;;;;8.83;7.33;;;4.00;99.90;;;;;;4979528;28;20263;-74
2021/12/18 12:46:45;;;;;;;11.07;8.20;;;4.00;99.90;;;;;;4968952;28;20553;-76
2021/12/18 12:49:15;;;;;;;9.63;7.80;;;4.00;99.90;;;;;;4986994;28;20172;-76
2021/12/18 12:52:05;;;;;;;10.53;8.13;;;4.00;99.90;;;;;;4986684;28;20199;-76
2021/12/18 12:54:43;;;;;;;10.87;8.07;;;4.10;99.90;;;;;;4956316;28;20205;-76
2021/12/18 12:57:27;;;;;;;9.60;7.90;;;4.00;99.90;;;;;;4977230;28;20549;-75
2021/12/18 13:00:17;;;;;;;10.43;7.93;;;3.90;99.90;;;;;;4977931;28;20189;-75
2021/12/18 13:02:55;;;;;;;11.77;8.87;;;4.00;99.90;;;;;;4974849;28;20178;-76
2021/12/18 13:05:22;;;;;;;11.97;9.17;;;4.10;99.90;;;;;;4984019;28;20275;-75
2021/12/18 13:07:57;;;;;;;10.90;8.63;;;4.00;99.90;;;;;;4980236;28;20181;-76
2021/12/18 13:10:34;;;;;;;9.43;7.63;;;4.10;99.90;;;;;;4971821;28;20184;-76
2021/12/18 13:13:10;;;;;;;9.90;7.90;;;4.10;99.90;;;;;;4977576;28;20250;-75
2021/12/18 13:15:48;;;;;;;9.97;7.77;;;4.10;99.90;;;;;;4972320;28;20191;-77
2021/12/18 13:18:15;;;;;;;8.53;7.27;;;4.10;99.90;;;;;;4989913;28;20262;-76
2021/12/18 13:20:58;;;;;;;10.63;7.73;;;4.10;99.90;;;;;;4978287;28;20622;-77
2021/12/18 13:23:55;;;;;;;11.73;7.90;;;3.90;99.90;;;;;;4991166;28;20179;-76
2021/12/18 13:26:44;;;;;;;10.50;8.80;;;4.00;99.90;;;;;;4966472;28;20271;-76
2021/12/18 13:29:21;;;;;;;11.17;9.00;;;4.00;99.90;;;;;;4994323;28;20175;-77
2021/12/18 13:31:54;;;;;;;11.83;9.20;;;3.90;99.90;;;;;;4990641;28;20258;-76
2021/12/18 13:37:29;;;;;;;10.53;8.17;;;3.90;99.90;;;;;;5690879;23;20472;-74
2021/12/18 13:39:55;;;;;;;10.03;7.87;;;3.90;99.90;;;;;;5002157;28;20581;-75
2021/12/18 13:42:23;;;;;;;14.80;9.37;;;4.00;99.90;;;;;;5005971;28;20175;-76
2021/12/18 13:44:56;;;;;;;12.60;9.53;;;3.90;99.90;;;;;;5004347;28;20176;-74
2021/12/18 13:47:38;;;;;;;12.73;9.83;;;3.90;99.90;;;;;;4981980;28;20252;-75
2021/12/18 13:50:14;;;;;;;13.27;9.90;;;3.90;99.90;;;;;;4995131;28;20195;-75
2021/12/18 13:52:51;;;;;;;17.00;11.47;;;3.90;99.90;;;;;;5003713;28;20200;-77
2021/12/18 13:55:32;;;;;;;21.87;12.70;;;3.90;99.90;;;;;;5003798;28;20180;-76
2021/12/18 13:58:21;;;;;;;21.97;13.57;;;3.90;99.90;;;;;;4992455;28;20680;-75
2021/12/18 14:01:03;;;;;;;22.23;14.13;;;3.80;99.90;;;;;;5005313;28;20185;-75
2021/12/18 14:03:49;;;;;;;26.33;14.97;;;3.80;99.90;;;;;;5010314;28;20209;-76
2021/12/18 14:06:27;;;;;;;24.53;14.53;;;3.70;99.90;;;;;;5003321;28;20586;-75
2021/12/18 14:08:57;;;;;;;25.43;15.83;;;3.60;99.90;;;;;;5006844;28;20183;-76